Time;durP1;ratioP1;P1;durP2;ratioP2;P2;SDS_P1;SDS_P2;PMS_P1;PMS_P2;Temp;Humidity;BMP_temperature;BMP_pressure;BME280_temperature;BME280_humidity;BME280_pressure;Samples;Min_cycle;Max_cycle;Signal;HPM_P1;HPM_P2
2022/01/27 00:01:47;;;;;;;46.97;17.30;;;;;;;-145.69;100.00;74531.69;5113605;28;20189;-78
2022/01/27 00:04:17;;;;;;;50.67;17.07;;;;;;;-145.69;100.00;74523.72;5112310;28;20228;-78
2022/01/27 00:06:46;;;;;;;47.20;16.87;;;;;;;-145.69;100.00;74517.75;5111324;28;20202;-78
2022/01/27 00:09:19;;;;;;;45.80;17.83;;;;;;;-145.69;100.00;74511.78;5111047;28;20225;-78
2022/01/27 00:11:47;;;;;;;51.23;17.87;;;;;;;-145.69;100.00;74511.78;5113102;27;20207;-77
2022/01/27 00:14:17;;;;;;;46.03;17.70;;;;;;;-145.69;100.00;74511.78;5131415;27;20212;-78
2022/01/27 00:16:54;;;;;;;52.70;16.90;;;;;;;-145.69;100.00;74499.81;5132502;27;20195;-78
2022/01/27 00:19:26;;;;;;;50.00;17.53;;;;;;;-145.69;100.00;74507.78;5132476;27;20196;-78
2022/01/27 00:21:53;;;;;;;47.00;17.03;;;;;;;-145.69;100.00;74511.78;5133990;27;20207;-78
2022/01/27 00:24:19;;;;;;;46.13;15.87;;;;;;;-145.69;100.00;74483.88;5133798;27;20208;-78
2022/01/27 00:26:53;;;;;;;45.13;16.07;;;;;;;-145.69;100.00;74463.97;5134277;27;20555;-78
2022/01/27 00:29:19;;;;;;;51.83;14.43;;;;;;;-145.69;100.00;74456.00;5133463;27;20699;-78
2022/01/27 00:31:47;;;;;;;41.10;14.37;;;;;;;-145.69;100.00;74471.94;5133940;27;20207;-78
2022/01/27 00:34:14;;;;;;;43.97;15.60;;;;;;;-145.69;100.00;74463.97;5133866;27;20556;-78
2022/01/27 00:36:40;;;;;;;45.20;15.63;;;;;;;-145.69;100.00;74467.97;5133898;27;20197;-78
2022/01/27 00:39:06;;;;;;;39.10;12.83;;;;;;;-145.69;100.00;74469.94;5133837;27;20265;-78
2022/01/27 00:41:33;;;;;;;37.53;12.67;;;;;;;-145.69;100.00;74467.97;5133433;27;20211;-78
2022/01/27 00:44:01;;;;;;;29.37;11.57;;;;;;;-145.69;100.00;74489.88;5133653;27;20555;-77
2022/01/27 00:46:30;;;;;;;32.60;10.67;;;;;;;-145.69;100.00;74469.94;5132964;28;20567;-78
2022/01/27 00:48:58;;;;;;;27.87;9.30;;;;;;;-145.69;100.00;74465.97;5133877;27;20236;-77
2022/01/27 00:51:29;;;;;;;29.57;9.30;;;;;;;-145.69;100.00;74448.03;5137788;27;20196;-78
2022/01/27 00:54:04;;;;;;;30.67;9.20;;;;;;;-145.69;100.00;74463.97;5123602;27;20197;-78
2022/01/27 00:56:38;;;;;;;29.03;9.40;;;;;;;-145.69;100.00;74440.09;5117326;28;20287;-78
2022/01/27 00:59:20;;;;;;;23.37;9.43;;;;;;;-145.69;100.00;74434.09;5117243;28;20204;-77
2022/01/27 01:02:03;;;;;;;22.70;7.83;;;;;;;-145.69;100.00;74452.03;5117052;28;20664;-77
2022/01/27 01:04:35;;;;;;;25.00;7.37;;;;;;;-145.69;100.00;74448.03;5116508;28;20204;-78
2022/01/27 01:07:06;;;;;;;25.63;8.83;;;;;;;-145.69;100.00;74444.06;5116525;28;20724;-77
2022/01/27 01:15:26;;;;;;;23.27;8.67;;;;;;;-145.69;100.00;74428.13;5090435;27;21081;-77
2022/01/27 01:18:19;;;;;;;18.97;7.10;;;;;;;-145.69;100.00;74442.06;5090470;28;20221;-77
2022/01/27 01:31:51;;;;;;;36.23;10.30;;;;;;;-145.69;100.00;74483.88;5090168;28;20243;-77
2022/01/27 01:34:20;;;;;;;31.43;10.13;;;;;;;-145.69;100.00;74489.88;5089949;28;20584;-77
2022/01/27 01:36:56;;;;;;;26.93;9.00;;;;;;;-145.69;100.00;74511.78;5090160;28;20289;-77
2022/01/27 01:39:27;;;;;;;31.50;8.70;;;;;;;-145.69;100.00;74503.81;5090001;28;20201;-77
2022/01/27 01:42:05;;;;;;;25.07;9.17;;;;;;;-145.69;100.00;74525.72;5089571;28;20308;-77
2022/01/27 01:44:35;;;;;;;23.23;7.77;;;;;;;-145.69;100.00;74523.72;5089675;28;20202;-77
2022/01/27 01:47:05;;;;;;;22.37;7.70;;;;;;;-145.69;100.00;74509.78;5089902;28;20228;-77
2022/01/27 01:49:32;;;;;;;21.00;7.67;;;;;;;-145.69;100.00;74499.81;5089766;28;20242;-77
2022/01/27 01:52:03;;;;;;;18.60;7.33;;;;;;;-145.69;100.00;74501.81;5089713;28;20272;-77
2022/01/27 01:54:30;;;;;;;22.87;8.03;;;;;;;-145.69;100.00;74493.84;5089541;28;20727;-77
2022/01/27 01:56:56;;;;;;;20.37;7.23;;;;;;;-145.69;100.00;74499.81;5089520;28;20677;-77
2022/01/27 01:59:24;;;;;;;18.47;7.20;;;;;;;-145.69;100.00;74501.81;5089782;28;20205;-77
2022/01/27 02:01:51;;;;;;;14.73;5.80;;;;;;;-145.69;100.00;74495.84;5089669;28;20599;-78
2022/01/27 02:04:19;;;;;;;16.77;6.70;;;;;;;-145.69;100.00;74495.84;5089627;28;20199;-77
2022/01/27 02:06:53;;;;;;;19.27;5.73;;;;;;;-145.69;100.00;74487.88;5089489;28;20212;-77
2022/01/27 02:09:32;;;;;;;16.50;5.87;;;;;;;-145.69;100.00;74485.88;5089650;28;20204;-77
2022/01/27 02:20:25;;;;;;;7.90;3.53;;;;;;;-145.69;100.00;74469.94;5089219;28;20252;-77
2022/01/27 02:22:52;;;;;;;5.87;2.23;;;;;;;-145.69;100.00;74463.97;5089358;28;20210;-77
2022/01/27 02:25:18;;;;;;;6.53;2.60;;;;;;;-145.69;100.00;74463.97;5083248;28;20553;-77
2022/01/27 02:27:45;;;;;;;4.80;2.27;;;;;;;-145.69;100.00;74452.03;5075445;28;20570;-77
2022/01/27 02:30:12;;;;;;;5.47;2.47;;;;;;;-145.69;100.00;74440.09;5075685;28;20207;-77
2022/01/27 02:32:38;;;;;;;7.30;2.10;;;;;;;-145.69;100.00;74436.09;5075598;28;20199;-77
2022/01/27 02:35:08;;;;;;;4.93;2.53;;;;;;;-145.69;100.00;74442.06;5075440;28;20234;-77
2022/01/27 02:37:38;;;;;;;5.67;2.20;;;;;;;-145.69;100.00;74434.09;5075432;28;20202;-77
2022/01/27 02:40:05;;;;;;;4.17;2.27;;;;;;;-145.69;100.00;74440.09;5075299;28;20203;-78
2022/01/27 02:42:34;;;;;;;3.40;2.03;;;;;;;-145.69;100.00;74422.16;5074903;28;20191;-78
2022/01/27 02:45:09;;;;;;;3.60;2.10;;;;;;;-145.69;100.00;74436.09;5074854;28;20665;-77
2022/01/27 02:47:42;;;;;;;6.60;2.40;;;;;;;-145.69;100.00;74390.28;5075322;28;20206;-78
2022/01/27 02:50:12;;;;;;;5.53;1.80;;;;;;;-145.69;100.00;74384.31;5075139;28;20202;-78
2022/01/27 02:52:43;;;;;;;4.50;2.13;;;;;;;-145.69;100.00;74382.31;5075081;28;20198;-78
2022/01/27 02:55:13;;;;;;;5.20;2.10;;;;;;;-145.69;100.00;74372.38;5075126;28;20226;-78
2022/01/27 02:57:40;;;;;;;3.43;1.90;;;;;;;-145.69;100.00;74368.38;5071549;28;20252;-78
2022/01/27 03:00:11;;;;;;;4.20;1.90;;;;;;;-145.69;100.00;74372.38;5062186;28;20195;-78
2022/01/27 03:02:39;;;;;;;5.47;2.13;;;;;;;-145.69;100.00;74384.31;5075093;28;20198;-78
2022/01/27 03:05:06;;;;;;;4.00;1.90;;;;;;;-145.69;100.00;74374.38;5074740;28;20680;-77
2022/01/27 03:07:32;;;;;;;4.67;2.17;;;;;;;-145.69;100.00;74372.38;5075060;28;20222;-77
2022/01/27 03:10:00;;;;;;;5.30;2.00;;;;;;;-145.69;100.00;74348.47;5075000;28;20202;-77
2022/01/27 03:12:29;;;;;;;2.83;1.60;;;;;;;-145.69;100.00;74336.53;5074661;28;20202;-77
2022/01/27 03:14:57;;;;;;;4.43;1.80;;;;;;;-145.69;100.00;74344.50;5074205;28;20325;-77
2022/01/27 03:17:24;;;;;;;5.40;1.83;;;;;;;-145.69;100.00;74340.50;5074831;28;20194;-77
2022/01/27 03:19:53;;;;;;;4.37;1.77;;;;;;;-145.69;100.00;74270.81;5074559;28;20209;-77
2022/01/27 03:22:20;;;;;;;3.30;1.73;;;;;;;-145.69;100.00;74250.91;5074698;28;20210;-77
2022/01/27 03:24:46;;;;;;;4.57;2.27;;;;;;;-145.69;100.00;74260.84;5074768;28;20199;-76
2022/01/27 03:27:20;;;;;;;3.90;1.83;;;;;;;-145.69;100.00;74268.81;5074681;28;20210;-77
2022/01/27 03:29:49;;;;;;;4.90;2.00;;;;;;;-145.69;100.00;74229.00;5074647;28;20203;-77
2022/01/27 03:32:18;;;;;;;2.53;1.57;;;;;;;-145.69;100.00;74240.94;5074320;28;20207;-76
2022/01/27 03:34:45;;;;;;;3.43;1.90;;;;;;;-145.69;100.00;74268.81;5074496;28;20223;-77
2022/01/27 03:37:12;;;;;;;2.40;1.40;;;;;;;-145.69;100.00;74264.84;5073444;28;20578;-77
2022/01/27 03:39:42;;;;;;;3.57;1.77;;;;;;;-145.69;100.00;74256.88;5074329;28;20202;-77
2022/01/27 03:42:10;;;;;;;6.00;1.70;;;;;;;-145.69;100.00;74268.81;5074137;28;20198;-77
2022/01/27 03:44:38;;;;;;;2.60;1.47;;;;;;;-145.69;100.00;74282.75;5074026;28;20210;-77
2022/01/27 03:47:05;;;;;;;2.87;1.70;;;;;;;-145.69;100.00;74278.78;5074304;28;20210;-77
2022/01/27 03:49:32;;;;;;;2.13;1.40;;;;;;;-145.69;100.00;74266.84;5074153;28;20206;-77
2022/01/27 03:52:01;;;;;;;2.30;1.33;;;;;;;-145.69;100.00;74240.94;5074020;28;20665;-78
2022/01/27 03:54:31;;;;;;;3.70;1.77;;;;;;;-145.69;100.00;74213.06;5074041;28;20261;-77
2022/01/27 03:56:58;;;;;;;3.37;1.40;;;;;;;-145.69;100.00;74161.28;5073977;28;20202;-77
2022/01/27 03:59:27;;;;;;;3.37;1.50;;;;;;;-145.69;100.00;74189.19;5073743;28;20198;-77
2022/01/27 04:01:55;;;;;;;3.47;1.40;;;;;;;-145.69;100.00;74199.13;5073978;28;20230;-77
2022/01/27 04:04:21;;;;;;;2.43;1.20;;;;;;;-145.69;100.00;74157.31;5073838;28;20653;-77
2022/01/27 04:06:52;;;;;;;3.37;1.50;;;;;;;-145.69;100.00;74181.22;5073102;28;20198;-77
2022/01/27 04:09:24;;;;;;;5.07;1.10;;;;;;;-145.69;100.00;74189.19;5073764;28;20217;-77
2022/01/27 04:11:51;;;;;;;1.90;1.20;;;;;;;-145.69;100.00;74181.22;5073143;28;20191;-77
2022/01/27 04:14:17;;;;;;;1.80;1.20;;;;;;;-145.69;100.00;74157.31;5072944;28;20230;-77
2022/01/27 04:16:44;;;;;;;2.43;1.40;;;;;;;-145.69;100.00;74161.28;5073679;28;20201;-77
2022/01/27 04:19:13;;;;;;;2.77;1.50;;;;;;;-145.69;100.00;74157.31;5073510;28;20585;-77
2022/01/27 04:21:39;;;;;;;3.20;1.40;;;;;;;-145.69;100.00;74149.34;5073494;28;20199;-77
2022/01/27 04:24:08;;;;;;;2.20;1.17;;;;;;;-145.69;100.00;74165.28;5073453;28;20261;-77
2022/01/27 04:26:43;;;;;;;1.90;1.47;;;;;;;-145.69;100.00;74161.28;5073307;28;20229;-77
2022/01/27 04:29:13;;;;;;;2.90;1.47;;;;;;;-145.69;100.00;74165.28;5073657;28;20208;-77
2022/01/27 04:31:43;;;;;;;4.77;1.47;;;;;;;-145.69;100.00;74169.25;5073467;28;20198;-77
2022/01/27 04:34:12;;;;;;;2.20;1.30;;;;;;;-145.69;100.00;74185.19;5073671;28;20642;-77
2022/01/27 04:36:43;;;;;;;3.67;1.50;;;;;;;-145.69;100.00;74209.09;5073119;28;20199;-78
2022/01/27 04:39:16;;;;;;;3.13;1.30;;;;;;;-145.69;100.00;74189.19;5073510;28;20198;-78
2022/01/27 04:41:48;;;;;;;3.77;1.67;;;;;;;-145.69;100.00;74157.31;5073001;28;20195;-77
2022/01/27 04:44:23;;;;;;;2.50;1.27;;;;;;;-145.69;100.00;74163.28;5073109;28;20665;-77
2022/01/27 04:46:55;;;;;;;3.13;1.20;;;;;;;-145.69;100.00;74169.25;5073193;28;20194;-77
2022/01/27 04:49:23;;;;;;;1.70;1.10;;;;;;;-145.69;100.00;74165.28;5072784;28;20213;-77
2022/01/27 04:51:49;;;;;;;1.27;1.03;;;;;;;-145.69;100.00;74151.34;5072733;28;20195;-77
2022/01/27 04:54:21;;;;;;;1.80;1.13;;;;;;;-145.69;100.00;74145.38;5072937;28;20584;-78
2022/01/27 04:56:47;;;;;;;2.27;1.17;;;;;;;-145.69;100.00;74137.41;5072827;28;20213;-78
2022/01/27 04:59:23;;;;;;;4.93;1.80;;;;;;;-145.69;100.00;74161.28;5056444;28;20210;-78
2022/01/27 05:01:57;;;;;;;2.83;1.43;;;;;;;-145.69;97.65;74117.50;5052765;28;20657;-78
2022/01/27 05:04:31;;;;;;;3.60;1.47;;;;;;;-145.69;95.20;74101.56;5053128;28;20208;-78
2022/01/27 05:06:58;;;;;;;2.00;1.33;;;;;;;-145.69;96.09;74095.59;5052892;28;20215;-77
2022/01/27 05:09:24;;;;;;;3.67;1.47;;;;;;;-145.69;95.86;74101.56;5052902;28;20214;-77
2022/01/27 05:11:58;;;;;;;4.00;1.40;;;;;;;-145.69;94.97;74095.59;5062917;28;20351;-77
2022/01/27 05:14:27;;;;;;;2.30;1.37;;;;;;;-145.69;94.06;74093.59;5072456;28;20234;-78
2022/01/27 05:16:54;;;;;;;5.47;1.33;;;;;;;-145.69;94.99;74065.72;5072943;28;20281;-77
2022/01/27 05:19:21;;;;;;;2.07;1.50;;;;;;;-145.69;96.81;74067.72;5072941;28;20592;-77
2022/01/27 05:21:51;;;;;;;1.17;1.07;;;;;;;-145.69;92.52;74061.72;5072864;28;20221;-78
2022/01/27 05:24:21;;;;;;;1.70;1.10;;;;;;;-145.69;96.95;74057.75;5072751;28;20787;-78
2022/01/27 05:26:50;;;;;;;2.50;1.13;;;;;;;-145.69;97.92;74091.59;5072581;28;20264;-78
2022/01/27 05:29:16;;;;;;;1.77;1.10;;;;;;;-145.69;98.18;74087.63;5072855;28;20222;-78
2022/01/27 05:31:49;;;;;;;2.37;1.47;;;;;;;-145.69;93.82;74083.63;5072894;28;20230;-77
2022/01/27 05:34:15;;;;;;;2.20;1.40;;;;;;;-145.69;99.06;74085.63;5072227;28;20202;-78
2022/01/27 05:36:44;;;;;;;1.30;1.00;;;;;;;-145.69;95.55;74085.63;5072803;28;20605;-78
2022/01/27 05:39:14;;;;;;;1.77;1.30;;;;;;;-145.69;90.44;74053.78;5072491;28;20202;-78
2022/01/27 05:41:42;;;;;;;7.37;1.60;;;;;;;-145.69;92.65;74053.78;5072723;28;20549;-77
2022/01/27 05:44:08;;;;;;;2.10;1.33;;;;;;;-145.69;90.29;74057.75;5072690;28;20296;-78
2022/01/27 05:46:35;;;;;;;17.97;1.80;;;;;;;-145.69;91.08;74037.84;5072538;28;20203;-77
2022/01/27 05:49:02;;;;;;;1.97;1.20;;;;;;;-145.69;100.00;74059.75;5072731;28;20264;-76
2022/01/27 05:51:28;;;;;;;2.53;1.20;;;;;;;-145.69;90.13;74037.84;5072333;28;20684;-77
2022/01/27 05:53:56;;;;;;;1.30;1.10;;;;;;;-145.69;89.38;74017.94;5072281;28;20198;-77
2022/01/27 05:56:27;;;;;;;4.10;1.33;;;;;;;-145.69;100.00;74059.75;5072526;28;20641;-77
2022/01/27 05:58:54;;;;;;;6.33;1.63;;;;;;;-145.69;98.03;74049.78;5072547;28;20202;-76
2022/01/27 06:01:20;;;;;;;5.10;1.93;;;;;;;-145.69;98.49;74047.78;5074873;28;20535;-77
2022/01/27 06:03:47;;;;;;;7.03;1.40;;;;;;;-145.69;94.82;74045.81;5076077;28;20244;-78
2022/01/27 06:06:13;;;;;;;4.20;1.50;;;;;;;-145.69;98.02;74031.88;5076007;28;20206;-78
2022/01/27 06:08:40;;;;;;;2.10;1.30;;;;;;;-145.69;93.15;74035.84;5075958;28;20661;-79
2022/01/27 06:11:06;;;;;;;1.83;0.90;;;;;;;-145.69;91.57;74029.88;5075975;28;20213;-79
2022/01/27 06:13:34;;;;;;;2.37;1.20;;;;;;;-145.69;91.93;74021.91;5075756;28;20590;-78
2022/01/27 06:16:02;;;;;;;2.77;1.30;;;;;;;-145.69;99.95;74015.94;5075848;28;20231;-79
2022/01/27 06:18:28;;;;;;;7.10;1.37;;;;;;;-145.69;92.83;74041.81;5075493;28;20195;-79
2022/01/27 06:20:59;;;;;;;2.70;1.20;;;;;;;-145.69;90.59;74037.84;5075629;28;20203;-79
2022/01/27 06:23:26;;;;;;;1.87;1.20;;;;;;;-145.69;99.29;74019.91;5075947;28;20203;-78
2022/01/27 06:25:52;;;;;;;2.13;1.10;;;;;;;-145.69;100.00;74031.88;5075482;28;20211;-78
2022/01/27 06:28:19;;;;;;;2.23;1.30;;;;;;;-145.69;99.85;74009.97;5073649;28;20553;-78
2022/01/27 06:30:47;;;;;;;3.47;1.30;;;;;;;-145.69;98.19;74037.84;5075470;28;20285;-78
2022/01/27 06:33:13;;;;;;;2.93;1.00;;;;;;;-145.69;100.00;74049.78;5075406;28;20615;-79
2022/01/27 06:35:40;;;;;;;6.07;1.20;;;;;;;-145.69;99.76;74027.88;5075443;28;20250;-78
2022/01/27 06:38:07;;;;;;;2.40;1.37;;;;;;;-145.69;96.45;74019.91;5075737;28;20297;-78
2022/01/27 06:40:34;;;;;;;6.10;1.60;;;;;;;-145.69;89.19;73990.06;5075356;28;20210;-78
2022/01/27 06:43:00;;;;;;;2.80;1.10;;;;;;;-145.69;100.00;74007.97;5075395;28;20191;-78
2022/01/27 06:45:27;;;;;;;3.47;1.23;;;;;;;-145.69;94.98;73994.03;5075273;28;20202;-78
2022/01/27 06:47:55;;;;;;;5.33;1.10;;;;;;;-145.69;90.92;73950.22;5075167;28;20209;-78
2022/01/27 06:50:21;;;;;;;2.17;0.90;;;;;;;-145.69;92.54;73970.16;5075226;28;20665;-78
2022/01/27 06:52:48;;;;;;;2.97;1.03;;;;;;;-145.69;95.27;73962.19;5075162;28;20676;-78
2022/01/27 06:55:17;;;;;;;1.27;1.03;;;;;;;-145.69;84.20;73942.25;5070199;28;20708;-78
2022/01/27 06:57:44;;;;;;;1.50;0.80;;;;;;;-145.69;87.31;73928.31;5055287;28;20203;-78
2022/01/27 07:00:11;;;;;;;1.77;1.00;;;;;;;-145.69;83.04;73916.38;5055250;28;20234;-78
2022/01/27 07:02:38;;;;;;;1.07;0.90;;;;;;;-145.69;83.92;73904.44;5054877;28;20566;-78
2022/01/27 07:05:06;;;;;;;2.50;1.03;;;;;;;-145.69;92.44;73942.25;5055124;28;20253;-78
2022/01/27 07:07:33;;;;;;;1.60;1.00;;;;;;;-145.69;95.07;73940.28;5055087;28;20206;-79
2022/01/27 07:09:59;;;;;;;1.77;0.97;;;;;;;-145.69;100.00;73954.22;5054822;28;20646;-79
2022/01/27 07:12:26;;;;;;;3.60;1.13;;;;;;;-145.69;100.00;73970.16;5073952;28;20218;-78
2022/01/27 07:14:53;;;;;;;0.70;0.70;;;;;;;-145.69;98.66;73998.03;5074741;28;20593;-78
2022/01/27 07:17:21;;;;;;;2.00;1.03;;;;;;;-145.69;100.00;74033.84;5074666;28;20658;-78
2022/01/27 07:19:47;;;;;;;1.10;1.00;;;;;;;-145.69;100.00;74053.78;5074659;28;20256;-79
2022/01/27 07:22:15;;;;;;;2.63;1.00;;;;;;;-145.69;100.00;74049.78;5074696;28;20207;-79
2022/01/27 07:24:42;;;;;;;2.00;1.20;;;;;;;-145.69;100.00;74013.94;5074779;28;20203;-79
2022/01/27 07:27:08;;;;;;;2.00;0.93;;;;;;;-145.69;100.00;73956.19;5074659;28;20198;-79
2022/01/27 07:29:35;;;;;;;2.37;0.90;;;;;;;-145.69;96.29;73962.19;5074563;28;20229;-78
2022/01/27 07:32:02;;;;;;;5.77;0.90;;;;;;;-145.69;94.88;73942.25;5074397;28;20210;-78
2022/01/27 07:34:28;;;;;;;1.03;0.80;;;;;;;-145.69;93.82;73954.22;5074543;28;20206;-78
2022/01/27 07:36:58;;;;;;;3.00;0.90;;;;;;;-145.69;95.61;73974.13;5074266;28;20689;-78
2022/01/27 07:39:27;;;;;;;1.47;0.90;;;;;;;-145.69;96.96;73984.09;5074259;28;20779;-78
2022/01/27 07:41:56;;;;;;;1.27;0.83;;;;;;;-145.69;97.75;73982.09;5073983;28;20290;-79
2022/01/27 07:44:23;;;;;;;14.37;6.33;;;;;;;-145.69;98.75;73994.03;5074110;28;20199;-78
2022/01/27 07:46:49;;;;;;;8.20;4.43;;;;;;;-145.69;98.67;74002.00;5073980;28;20604;-78
2022/01/27 07:49:16;;;;;;;6.47;3.27;;;;;;;-145.69;99.76;74017.94;5074201;28;20199;-79
2022/01/27 07:51:42;;;;;;;10.87;4.30;;;;;;;-145.69;98.99;74037.84;5072203;28;20206;-79
2022/01/27 07:54:08;;;;;;;10.23;4.27;;;;;;;-145.69;98.84;74037.84;5074040;28;20199;-79
2022/01/27 07:56:37;;;;;;;13.77;5.50;;;;;;;-145.69;96.27;74033.84;5073686;28;20707;-79
2022/01/27 07:59:03;;;;;;;12.23;4.83;;;;;;;-145.69;95.54;74027.88;5073922;28;20213;-78
2022/01/27 08:01:30;;;;;;;10.23;4.70;;;;;;;-145.69;94.67;74021.91;5073846;28;20555;-78
2022/01/27 08:03:56;;;;;;;12.97;5.80;;;;;;;-145.69;95.61;74041.81;5073887;28;20230;-79
2022/01/27 08:06:23;;;;;;;13.30;5.73;;;;;;;-145.69;95.78;74051.78;5073736;28;20209;-78
2022/01/27 08:08:50;;;;;;;11.37;4.90;;;;;;;-145.69;100.00;74057.75;5073731;28;20198;-79
2022/01/27 08:11:18;;;;;;;10.83;4.87;;;;;;;-145.69;100.00;74041.81;5073519;28;20405;-78
2022/01/27 08:13:46;;;;;;;12.90;5.60;;;;;;;-145.69;100.00;74039.84;5073573;28;20252;-79
2022/01/27 08:16:13;;;;;;;14.37;5.93;;;;;;;-145.69;99.73;74033.84;5073380;28;20227;-79
2022/01/27 08:18:39;;;;;;;14.47;5.47;;;;;;;-145.69;100.00;74027.88;5073570;28;20206;-79
2022/01/27 08:21:06;;;;;;;14.67;6.03;;;;;;;-145.69;100.00;74011.97;5073584;28;20202;-79
2022/01/27 08:23:32;;;;;;;11.63;5.70;;;;;;;-145.69;100.00;74000.00;5073045;28;20199;-79
2022/01/27 08:26:04;;;;;;;13.00;5.83;;;;;;;-145.69;99.63;74005.97;5073487;28;20207;-80
2022/01/27 08:28:36;;;;;;;11.40;5.53;;;;;;;-145.69;98.36;73990.06;5073438;28;20198;-79
2022/01/27 08:31:04;;;;;;;12.63;5.53;;;;;;;-145.69;97.22;73986.06;5073271;28;20205;-80
2022/01/27 08:33:31;;;;;;;16.43;5.93;;;;;;;-145.69;96.98;73996.03;5073229;28;20241;-80
2022/01/27 08:36:00;;;;;;;17.03;6.80;;;;;;;-145.69;94.60;74009.97;5073186;28;20226;-79
2022/01/27 08:38:27;;;;;;;18.90;7.27;;;;;;;-145.69;95.49;74019.91;5073195;28;20230;-79
2022/01/27 08:40:54;;;;;;;19.63;8.10;;;;;;;-145.69;98.16;74009.97;5073343;28;20229;-80
2022/01/27 08:43:20;;;;;;;16.13;7.10;;;;;;;-145.69;93.71;74002.00;5073359;28;20198;-79
2022/01/27 08:45:47;;;;;;;16.33;7.03;;;;;;;-145.69;96.21;74013.94;5073131;28;20207;-80
2022/01/27 08:48:18;;;;;;;17.07;8.13;;;;;;;-145.69;97.00;74017.94;5073192;28;20195;-80
2022/01/27 08:50:51;;;;;;;21.27;9.23;;;;;;;-145.69;98.34;74011.97;5073087;28;20230;-77
2022/01/27 08:53:18;;;;;;;28.30;9.37;;;;;;;-145.69;97.18;74002.00;5073327;28;20191;-77
2022/01/27 08:55:45;;;;;;;24.53;9.47;;;;;;;-145.69;96.63;74005.97;5063186;28;20234;-80
2022/01/27 08:58:11;;;;;;;17.97;8.40;;;;;;;-145.69;94.36;74002.00;5052996;28;20253;-79
2022/01/27 09:00:38;;;;;;;20.53;7.97;;;;;;;-145.69;95.42;74005.97;5067346;28;20194;-78
2022/01/27 09:03:05;;;;;;;20.07;10.27;;;;;;;-145.69;94.06;74025.91;5072975;28;20542;-79
2022/01/27 09:05:33;;;;;;;19.63;8.37;;;;;;;-145.69;95.22;74011.97;5072676;28;20206;-79
2022/01/27 09:08:01;;;;;;;19.67;8.93;;;;;;;-145.69;93.67;74009.97;5072826;28;20658;-78
2022/01/27 09:10:31;;;;;;;20.47;9.17;;;;;;;-145.69;95.59;74055.75;5072903;28;20206;-79
2022/01/27 09:12:58;;;;;;;19.40;7.93;;;;;;;-145.69;97.85;74065.72;5072591;28;20665;-77
2022/01/27 09:15:24;;;;;;;18.27;8.30;;;;;;;-145.69;100.00;74059.75;5072547;28;20543;-79
2022/01/27 09:17:51;;;;;;;21.70;9.33;;;;;;;-145.69;99.22;74051.78;5072940;28;20241;-80
2022/01/27 09:20:17;;;;;;;23.67;9.73;;;;;;;-145.69;97.25;74045.81;5072578;28;20210;-80
2022/01/27 09:22:46;;;;;;;27.53;9.27;;;;;;;-145.69;96.82;74049.78;5072833;28;20202;-80
2022/01/27 09:25:17;;;;;;;25.23;10.47;;;;;;;-145.69;98.33;74049.78;5071855;28;20256;-79
2022/01/27 09:27:45;;;;;;;20.70;8.87;;;;;;;-145.69;97.85;74041.81;5072777;28;20297;-80
2022/01/27 09:30:15;;;;;;;23.53;9.17;;;;;;;-145.69;94.54;74029.88;5071524;28;20194;-77
2022/01/27 09:32:42;;;;;;;23.97;9.10;;;;;;;-145.69;95.11;74029.88;5072497;28;20199;-78
2022/01/27 09:35:08;;;;;;;18.93;8.50;;;;;;;-145.69;92.97;74017.94;5072925;28;20202;-78
2022/01/27 09:37:35;;;;;;;15.60;6.47;;;;;;;-145.69;92.61;74037.84;5076526;28;20233;-79
2022/01/27 09:40:03;;;;;;;18.43;7.17;;;;;;;-145.69;94.42;74045.81;5076098;28;20195;-78
2022/01/27 09:42:33;;;;;;;16.37;7.07;;;;;;;-145.69;94.89;74033.84;5076704;28;20195;-79
2022/01/27 09:45:03;;;;;;;17.43;7.37;;;;;;;-145.69;94.74;74031.88;5076336;28;20205;-80
2022/01/27 09:47:32;;;;;;;15.53;6.70;;;;;;;-145.69;94.13;74025.91;5076645;28;20206;-81
2022/01/27 09:50:09;;;;;;;13.90;6.70;;;;;;;-145.69;94.19;74013.94;5076586;28;20203;-79
2022/01/27 09:52:36;;;;;;;15.40;6.87;;;;;;;-145.69;91.93;74000.00;5076292;28;20237;-79
2022/01/27 09:55:05;;;;;;;18.97;7.23;;;;;;;-145.69;92.09;73990.06;5076237;28;20195;-79
2022/01/27 09:57:31;;;;;;;14.60;6.97;;;;;;;-145.69;88.88;73986.06;5075986;28;20230;-79
2022/01/27 09:59:58;;;;;;;21.33;7.03;;;;;;;-145.69;88.46;73990.06;5076359;28;20203;-80
2022/01/27 10:02:26;;;;;;;17.03;6.37;;;;;;;-145.69;88.60;73974.13;5076262;28;20199;-82
2022/01/27 10:04:54;;;;;;;18.63;7.53;;;;;;;-145.69;86.43;73960.19;5075985;28;20199;-79
2022/01/27 10:07:23;;;;;;;22.60;7.70;;;;;;;-145.69;88.24;73970.16;5076248;28;20230;-80
2022/01/27 10:09:59;;;;;;;21.43;8.27;;;;;;;-145.69;88.75;73952.22;5075741;28;20252;-82
2022/01/27 10:12:30;;;;;;;16.37;7.33;;;;;;;-145.69;90.09;73940.28;5075813;28;20202;-80
2022/01/27 10:15:04;;;;;;;19.93;7.73;;;;;;;-145.69;87.58;73924.34;5074797;28;20227;-80
2022/01/27 10:17:34;;;;;;;18.90;7.30;;;;;;;-145.69;87.05;73904.44;5076016;28;20278;-81
2022/01/27 10:20:00;;;;;;;19.00;8.27;;;;;;;-145.69;86.34;73886.50;5075816;28;20199;-81
2022/01/27 10:22:29;;;;;;;21.80;8.20;;;;;;;-145.69;86.97;73870.59;5075751;28;20205;-80
2022/01/27 10:25:20;;;;;;;20.60;8.50;;;;;;;-145.69;85.98;73874.56;5073655;28;20252;-80
2022/01/27 10:27:58;;;;;;;18.60;7.07;;;;;;;-145.69;88.37;73858.63;5076036;28;20275;-78
2022/01/27 10:30:38;;;;;;;24.17;8.93;;;;;;;-145.69;89.57;73854.66;5075966;28;20230;-78
2022/01/27 10:33:06;;;;;;;22.30;8.90;;;;;;;-145.69;87.37;73826.78;5075743;28;20228;-79
2022/01/27 10:35:33;;;;;;;23.90;9.33;;;;;;;-145.69;88.04;73818.81;5075744;28;20202;-80
2022/01/27 10:38:05;;;;;;;26.33;9.87;;;;;;;-145.69;87.57;73842.72;5075583;28;20230;-80
2022/01/27 10:40:34;;;;;;;24.47;9.63;;;;;;;-145.69;89.15;73834.75;5075162;28;20194;-78
2022/01/27 10:43:14;;;;;;;29.70;10.10;;;;;;;-145.69;89.77;73830.75;5075458;28;20198;-79
2022/01/27 10:46:06;;;;;;;32.33;10.67;;;;;;;-145.69;90.72;73842.72;5074975;28;20248;-78
2022/01/27 10:48:34;;;;;;;27.77;10.47;;;;;;;-145.69;90.86;73838.72;5075499;28;20290;-78
2022/01/27 10:51:09;;;;;;;32.40;11.27;;;;;;;-145.69;90.67;73834.75;5075179;28;20250;-78
2022/01/27 10:53:45;;;;;;;31.03;11.27;;;;;;;-145.69;93.89;73834.75;5075433;28;20198;-78
2022/01/27 10:56:17;;;;;;;27.90;10.23;;;;;;;-145.69;91.40;73824.78;5075080;28;20573;-78
2022/01/27 10:58:45;;;;;;;30.50;11.33;;;;;;;-145.69;90.46;73824.78;5075446;28;20562;-78
2022/01/27 11:01:21;;;;;;;31.20;11.17;;;;;;;-145.69;92.02;73810.84;5072406;28;20222;-78
2022/01/27 11:03:52;;;;;;;32.57;11.27;;;;;;;-145.69;91.45;73818.81;5075180;28;20569;-78
2022/01/27 11:06:20;;;;;;;32.37;11.13;;;;;;;-145.69;92.02;73822.81;5075029;28;20203;-78
2022/01/27 11:08:47;;;;;;;34.93;11.27;;;;;;;-145.69;92.01;73794.94;5074828;28;20195;-78
2022/01/27 11:11:15;;;;;;;43.47;11.63;;;;;;;-145.69;92.51;73804.88;5075496;28;20612;-78
2022/01/27 11:13:43;;;;;;;31.33;11.93;;;;;;;-145.69;92.05;73802.88;5075027;28;20226;-78
2022/01/27 11:16:17;;;;;;;31.70;10.87;;;;;;;-145.69;90.59;73802.88;5074767;28;20209;-78
2022/01/27 11:18:45;;;;;;;35.77;11.57;;;;;;;-145.69;92.58;73779.00;5074783;28;20198;-78
2022/01/27 11:21:24;;;;;;;34.30;11.70;;;;;;;-145.69;89.50;73773.03;5075045;28;20203;-76
2022/01/27 11:24:04;;;;;;;32.43;11.80;;;;;;;-145.69;91.64;73761.06;5074684;28;20252;-77
2022/01/27 11:26:45;;;;;;;36.87;12.63;;;;;;;-145.69;91.03;73767.06;5074829;28;20388;-77
2022/01/27 11:29:14;;;;;;;31.30;10.67;;;;;;;-145.69;88.60;73794.94;5074576;28;20685;-77
2022/01/27 11:31:55;;;;;;;30.10;10.60;;;;;;;-145.69;88.67;73802.88;5074449;28;20244;-77
2022/01/27 11:34:23;;;;;;;28.43;10.03;;;;;;;-145.69;89.65;73814.84;5074739;28;20199;-77
2022/01/27 11:37:05;;;;;;;33.00;11.23;;;;;;;-145.69;90.60;73798.91;5074555;28;20226;-76
2022/01/27 11:39:47;;;;;;;30.43;11.27;;;;;;;-145.69;89.20;73806.88;5072129;28;20202;-77
2022/01/27 11:42:14;;;;;;;29.27;10.50;;;;;;;-145.69;89.78;73814.84;5074509;28;20203;-77